createdAt,value
2022-11-17T00:00:24.594Z,22.80
2022-11-17T00:02:52.790Z,22.10
2022-11-17T00:05:21.012Z,20.00
2022-11-17T00:07:49.989Z,23.63
2022-11-17T00:10:18.518Z,20.10
2022-11-17T00:13:05.578Z,23.17
2022-11-17T00:15:33.551Z,26.13
2022-11-17T00:18:19.036Z,23.60
2022-11-17T00:21:04.616Z,24.23
2022-11-17T00:23:46.417Z,24.17
2022-11-17T00:26:15.861Z,28.20
2022-11-17T00:28:45.345Z,18.77
2022-11-17T00:31:31.725Z,29.00
2022-11-17T00:34:06.037Z,24.63
2022-11-17T00:36:39.787Z,25.67
2022-11-17T00:39:09.022Z,24.47
2022-11-17T00:41:37.178Z,29.77
2022-11-17T00:44:07.358Z,26.70
2022-11-17T00:46:37.101Z,26.67
2022-11-17T00:49:05.514Z,27.77
2022-11-17T00:51:33.900Z,28.67
2022-11-17T00:54:02.524Z,26.50
2022-11-17T00:56:30.461Z,24.57
2022-11-17T00:58:58.550Z,27.90
2022-11-17T01:01:28.620Z,31.03
2022-11-17T01:04:03.148Z,28.80
2022-11-17T01:06:32.679Z,31.23
2022-11-17T01:09:01.369Z,25.90
2022-11-17T01:11:29.782Z,26.17
2022-11-17T01:13:59.700Z,26.20
2022-11-17T01:16:29.944Z,28.67
2022-11-17T01:19:01.230Z,28.00
2022-11-17T01:21:30.053Z,29.93
2022-11-17T01:23:59.823Z,25.60
2022-11-17T01:26:29.465Z,30.23
2022-11-17T01:28:57.880Z,24.47
2022-11-17T01:31:28.854Z,27.10
2022-11-17T01:33:57.026Z,30.63
2022-11-17T01:36:26.598Z,26.90
2022-11-17T01:38:54.550Z,25.53
2022-11-17T01:41:24.297Z,26.03
2022-11-17T01:43:54.028Z,25.03
2022-11-17T01:46:31.632Z,20.20
2022-11-17T01:49:06.061Z,23.10
2022-11-17T01:51:38.752Z,22.10
2022-11-17T01:54:07.707Z,19.60
2022-11-17T01:56:41.669Z,22.70
2022-11-17T01:59:15.972Z,21.70
2022-11-17T02:01:56.491Z,22.07
2022-11-17T02:04:26.902Z,18.73
2022-11-17T02:07:00.791Z,17.30
2022-11-17T02:09:29.249Z,18.50
2022-11-17T02:11:59.679Z,18.30
2022-11-17T02:14:27.627Z,17.77
2022-11-17T02:16:59.999Z,18.70
2022-11-17T02:19:36.784Z,17.47
2022-11-17T02:22:27.057Z,28.07
2022-11-17T02:25:26.855Z,20.00
2022-11-17T02:28:07.634Z,27.63
2022-11-17T02:30:39.152Z,21.73
2022-11-17T02:33:14.414Z,18.87
2022-11-17T02:35:51.114Z,15.70
2022-11-17T02:38:29.534Z,19.93
2022-11-17T02:41:06.028Z,19.03
2022-11-17T02:43:59.616Z,20.87
2022-11-17T02:46:31.721Z,16.80
2022-11-17T02:49:02.906Z,17.00
2022-11-17T02:51:32.068Z,18.90
2022-11-17T02:54:00.651Z,16.43
2022-11-17T02:56:28.753Z,15.57
2022-11-17T02:59:01.792Z,15.20
2022-11-17T03:01:50.635Z,15.40
2022-11-17T03:04:32.951Z,18.07
2022-11-17T03:07:15.818Z,22.37
2022-11-17T03:09:50.173Z,15.10
2022-11-17T03:12:23.337Z,19.10
2022-11-17T03:15:02.901Z,15.80
2022-11-17T03:17:36.420Z,19.17
2022-11-17T03:20:09.463Z,16.80
2022-11-17T03:22:49.648Z,18.97
2022-11-17T03:25:21.077Z,16.43
2022-11-17T03:27:52.636Z,14.80
2022-11-17T03:30:23.067Z,12.67
2022-11-17T03:32:53.968Z,19.47
2022-11-17T03:35:25.785Z,15.33
2022-11-17T03:37:57.465Z,16.77
2022-11-17T03:40:28.860Z,14.07
2022-11-17T03:43:00.002Z,19.77
2022-11-17T03:45:31.142Z,15.67
2022-11-17T03:48:04.406Z,15.20
2022-11-17T03:50:37.511Z,18.07
2022-11-17T03:53:07.092Z,17.10
2022-11-17T03:55:41.964Z,14.90
2022-11-17T03:58:16.421Z,15.50
2022-11-17T04:00:47.613Z,16.10
2022-11-17T04:03:16.515Z,13.77
2022-11-17T04:05:44.738Z,11.40
2022-11-17T04:08:12.642Z,14.17
2022-11-17T04:10:54.496Z,14.60
2022-11-17T04:13:39.788Z,12.93
2022-11-17T04:16:09.487Z,14.23
2022-11-17T04:18:37.475Z,15.83
2022-11-17T04:21:06.329Z,15.47
2022-11-17T04:23:34.667Z,15.17
2022-11-17T04:26:19.983Z,15.97
2022-11-17T04:28:50.767Z,17.83
2022-11-17T04:31:23.389Z,15.40
2022-11-17T04:33:53.053Z,18.47
2022-11-17T04:36:22.618Z,18.63
2022-11-17T04:38:52.065Z,18.47
2022-11-17T04:41:38.805Z,18.20
2022-11-17T04:44:08.303Z,20.73
2022-11-17T04:46:38.921Z,19.23
2022-11-17T04:49:07.942Z,18.37
2022-11-17T04:51:37.189Z,20.17
2022-11-17T04:54:06.494Z,17.67
2022-11-17T04:56:34.816Z,20.00
2022-11-17T04:59:02.744Z,18.13
2022-11-17T05:01:30.759Z,23.03
2022-11-17T05:04:01.536Z,19.83
2022-11-17T05:06:32.440Z,19.50
2022-11-17T05:09:01.838Z,18.30
2022-11-17T05:11:48.947Z,17.97
2022-11-17T05:14:19.253Z,20.17
2022-11-17T05:17:09.578Z,21.30
2022-11-17T05:19:44.169Z,20.60
2022-11-17T05:22:31.742Z,21.33
2022-11-17T05:24:59.952Z,20.80
2022-11-17T05:27:27.923Z,20.37
2022-11-17T05:29:55.949Z,21.53
2022-11-17T05:32:24.079Z,19.70
2022-11-17T05:34:53.342Z,20.40
2022-11-17T05:37:21.207Z,14.80
2022-11-17T05:39:49.069Z,16.60
2022-11-17T05:42:16.945Z,12.80
2022-11-17T05:44:44.829Z,14.67
2022-11-17T05:47:12.677Z,21.73
2022-11-17T05:49:40.568Z,22.17
2022-11-17T05:52:09.791Z,20.50
2022-11-17T05:54:37.764Z,22.20
2022-11-17T05:57:10.490Z,20.03
2022-11-17T05:59:42.787Z,19.87
2022-11-17T06:02:15.231Z,24.20
2022-11-17T06:04:43.172Z,21.20
2022-11-17T06:07:12.681Z,23.37
2022-11-17T06:09:43.086Z,22.40
2022-11-17T06:12:11.969Z,24.70
2022-11-17T06:14:40.057Z,22.60
2022-11-17T06:17:11.826Z,23.33
2022-11-17T06:19:44.221Z,25.37
2022-11-17T06:22:13.929Z,27.97
2022-11-17T06:24:42.806Z,25.63
2022-11-17T06:27:11.695Z,22.40
2022-11-17T06:29:44.389Z,22.67
2022-11-17T06:32:14.151Z,25.40
2022-11-17T06:34:43.220Z,23.17
2022-11-17T06:37:11.485Z,26.27
2022-11-17T06:39:40.718Z,25.17
2022-11-17T06:42:08.652Z,24.37
2022-11-17T06:44:36.596Z,25.60
2022-11-17T06:47:04.532Z,21.67
2022-11-17T06:49:32.790Z,23.50
2022-11-17T06:52:00.678Z,27.63
2022-11-17T06:54:28.744Z,30.43
2022-11-17T06:56:57.972Z,23.20
2022-11-17T06:59:25.961Z,22.10
2022-11-17T07:01:53.900Z,23.40
2022-11-17T07:04:21.789Z,26.50
2022-11-17T07:06:49.854Z,28.00
2022-11-17T07:09:17.794Z,23.43
2022-11-17T07:11:45.676Z,22.73
2022-11-17T07:14:14.982Z,18.07
2022-11-17T07:16:43.435Z,16.80
2022-11-17T07:19:13.240Z,19.87
2022-11-17T07:21:41.220Z,19.40
2022-11-17T07:24:09.671Z,17.20
2022-11-17T07:26:37.575Z,20.17
2022-11-17T07:29:05.967Z,19.60
2022-11-17T07:31:37.555Z,15.27
2022-11-17T07:34:05.636Z,18.27
2022-11-17T07:36:34.591Z,20.80
2022-11-17T07:39:02.848Z,16.03
2022-11-17T07:41:30.733Z,17.00
2022-11-17T07:43:59.501Z,17.70
2022-11-17T07:46:27.470Z,16.80
2022-11-17T07:48:56.810Z,12.40
2022-11-17T07:51:24.724Z,18.37
2022-11-17T07:53:52.747Z,15.53
2022-11-17T07:56:20.609Z,18.27
2022-11-17T07:58:48.748Z,19.17
2022-11-17T08:01:16.778Z,15.60
2022-11-17T08:03:45.218Z,17.03
2022-11-17T08:06:14.866Z,12.93
2022-11-17T08:08:42.917Z,14.00
2022-11-17T08:11:12.550Z,19.67
2022-11-17T08:13:41.329Z,15.80
2022-11-17T08:16:11.087Z,15.33
2022-11-17T08:18:40.196Z,14.23
2022-11-17T08:21:10.175Z,12.83
2022-11-17T08:23:39.583Z,14.50
2022-11-17T08:26:09.644Z,13.67
2022-11-17T08:28:38.535Z,11.90
2022-11-17T08:31:08.516Z,12.40
2022-11-17T08:33:37.465Z,12.23
2022-11-17T08:36:07.213Z,12.00
2022-11-17T08:38:36.081Z,17.23
2022-11-17T08:41:07.895Z,11.20
2022-11-17T08:43:36.420Z,14.90
2022-11-17T08:46:04.539Z,9.63
2022-11-17T08:48:33.400Z,10.63
2022-11-17T08:51:06.734Z,10.57
2022-11-17T08:53:34.623Z,9.53
2022-11-17T08:56:02.529Z,7.93
2022-11-17T08:58:31.736Z,12.30
2022-11-17T09:01:04.904Z,9.77
2022-11-17T09:03:33.375Z,9.13
2022-11-17T09:06:02.138Z,8.20
2022-11-17T09:08:44.865Z,8.37
2022-11-17T09:11:14.438Z,6.40
2022-11-17T09:13:45.545Z,9.20
2022-11-17T09:16:14.181Z,9.40
2022-11-17T09:18:42.505Z,8.60
2022-11-17T09:21:12.156Z,5.83
2022-11-17T09:23:40.618Z,8.30
2022-11-17T09:26:10.397Z,7.77
2022-11-17T09:28:38.680Z,7.83
2022-11-17T09:31:09.735Z,7.20
2022-11-17T09:33:38.091Z,6.50
2022-11-17T09:36:07.574Z,8.77
2022-11-17T09:38:36.149Z,8.77
2022-11-17T09:41:12.735Z,9.13
2022-11-17T09:43:47.148Z,7.13
2022-11-17T09:46:21.115Z,5.37
2022-11-17T09:48:54.601Z,6.73
2022-11-17T09:51:25.755Z,8.97
2022-11-17T09:53:57.177Z,6.40
2022-11-17T09:56:28.237Z,5.57
2022-11-17T09:58:59.375Z,5.53
2022-11-17T10:01:30.391Z,6.60
2022-11-17T10:04:00.066Z,6.00
2022-11-17T10:06:29.730Z,6.60
2022-11-17T10:09:02.804Z,7.33
2022-11-17T10:11:32.606Z,10.90
2022-11-17T10:14:04.043Z,4.83
2022-11-17T10:16:33.373Z,6.70
2022-11-17T10:19:03.893Z,7.33
2022-11-17T10:21:32.358Z,5.30
2022-11-17T10:24:00.633Z,6.87
2022-11-17T10:26:28.784Z,5.83
2022-11-17T10:29:09.224Z,5.07
2022-11-17T10:31:46.870Z,4.30
2022-11-17T10:34:37.054Z,4.23
2022-11-17T10:37:27.887Z,4.50
2022-11-17T10:40:24.755Z,4.70
2022-11-17T10:43:01.550Z,3.30
2022-11-17T10:45:29.673Z,3.93
2022-11-17T10:48:11.618Z,4.50
2022-11-17T10:50:51.543Z,4.37
2022-11-17T10:53:25.446Z,3.90
2022-11-17T10:55:57.846Z,3.67
2022-11-17T10:58:27.333Z,3.87
2022-11-17T11:00:57.438Z,5.60
2022-11-17T11:03:30.090Z,3.53
2022-11-17T11:06:00.491Z,8.20
2022-11-17T11:08:54.163Z,3.40
2022-11-17T11:11:36.248Z,3.93
2022-11-17T11:14:13.144Z,5.57
2022-11-17T11:16:47.641Z,4.37
2022-11-17T11:19:18.985Z,4.80
2022-11-17T11:22:02.714Z,3.47
2022-11-17T11:24:39.705Z,4.37
2022-11-17T11:27:25.114Z,2.50
2022-11-17T11:30:01.546Z,3.60
2022-11-17T11:32:42.001Z,6.00
2022-11-17T11:35:34.609Z,6.03
2022-11-17T11:38:12.293Z,4.70
2022-11-17T11:40:43.187Z,3.67
2022-11-17T11:43:23.112Z,3.60
2022-11-17T11:46:02.348Z,2.83
2022-11-17T11:48:33.839Z,4.50
2022-11-17T11:51:05.816Z,3.27
2022-11-17T11:53:42.760Z,3.83
2022-11-17T11:56:19.984Z,3.47
2022-11-17T11:58:52.173Z,2.70
2022-11-17T12:01:22.281Z,5.63
2022-11-17T12:03:57.985Z,5.73
2022-11-17T12:06:43.818Z,2.43
2022-11-17T12:09:34.646Z,4.87
2022-11-17T12:12:08.545Z,2.90
2022-11-17T12:14:38.906Z,2.60
2022-11-17T12:17:17.167Z,4.20
2022-11-17T12:19:57.210Z,2.40
2022-11-17T12:23:08.375Z,2.70
2022-11-17T12:25:38.078Z,3.23
2022-11-17T12:28:32.640Z,3.87
2022-11-17T12:31:08.297Z,4.87
2022-11-17T12:34:15.049Z,1.10
2022-11-17T12:36:43.006Z,4.40
2022-11-17T12:39:56.289Z,4.07
2022-11-17T12:42:24.552Z,2.97
2022-11-17T12:45:00.269Z,6.80
2022-11-17T12:47:30.367Z,3.90
2022-11-17T12:50:31.067Z,1.87
2022-11-17T12:53:39.554Z,4.23
2022-11-17T12:56:35.208Z,9.63
2022-11-17T12:59:26.622Z,7.47
2022-11-17T13:02:00.847Z,1.20
2022-11-17T13:04:36.039Z,5.03
2022-11-17T13:07:06.516Z,3.70
2022-11-17T13:09:36.389Z,9.30
2022-11-17T13:12:07.415Z,2.10
2022-11-17T13:14:38.092Z,2.73
2022-11-17T13:17:12.716Z,5.90
2022-11-17T13:19:42.315Z,5.40
2022-11-17T13:22:18.629Z,6.03
2022-11-17T13:24:49.310Z,6.63
2022-11-17T13:27:25.410Z,3.43
2022-11-17T13:29:54.126Z,1.60
2022-11-17T13:32:24.065Z,2.00
2022-11-17T13:34:56.313Z,1.77
2022-11-17T13:37:25.709Z,0.60
2022-11-17T13:40:01.747Z,4.33
2022-11-17T13:42:33.419Z,2.30
2022-11-17T13:45:05.534Z,4.83
2022-11-17T13:47:46.521Z,1.80
2022-11-17T13:50:33.474Z,2.97
2022-11-17T13:53:03.258Z,6.23
2022-11-17T13:55:32.023Z,1.40
2022-11-17T13:58:03.331Z,4.10
2022-11-17T14:00:32.050Z,5.37
2022-11-17T14:03:03.092Z,4.20
2022-11-17T14:05:31.773Z,2.67
2022-11-17T14:08:11.532Z,5.20
2022-11-17T14:10:40.848Z,2.90
2022-11-17T14:13:23.821Z,3.07
2022-11-17T14:15:55.290Z,4.47
2022-11-17T14:18:28.442Z,2.87
2022-11-17T14:21:11.452Z,4.90
2022-11-17T14:23:39.944Z,1.57
2022-11-17T14:26:17.640Z,2.17
2022-11-17T14:28:47.649Z,6.07
2022-11-17T14:31:15.668Z,1.93
2022-11-17T14:33:43.565Z,4.07
2022-11-17T14:36:14.170Z,1.33
2022-11-17T14:38:42.317Z,2.57
2022-11-17T14:41:10.334Z,2.20
2022-11-17T14:43:38.335Z,2.53
2022-11-17T14:46:07.670Z,4.30
2022-11-17T14:48:35.560Z,4.03
2022-11-17T14:51:03.478Z,4.40
2022-11-17T14:53:31.346Z,3.07
2022-11-17T14:55:59.222Z,1.47
2022-11-17T14:58:27.086Z,4.07
2022-11-17T15:00:55.069Z,2.47
2022-11-17T15:03:24.369Z,3.90
2022-11-17T15:05:52.241Z,1.40
2022-11-17T15:08:20.172Z,1.07
2022-11-17T15:10:48.105Z,1.83
2022-11-17T15:13:15.984Z,1.50
2022-11-17T15:15:43.828Z,0.97
2022-11-17T15:18:12.496Z,1.40
2022-11-17T15:20:41.730Z,1.30
2022-11-17T15:23:09.771Z,1.67
2022-11-17T15:25:39.309Z,1.13
2022-11-17T15:28:07.246Z,2.77
2022-11-17T15:30:35.122Z,1.40
2022-11-17T15:33:02.967Z,1.53
2022-11-17T15:35:30.867Z,1.33
2022-11-17T15:38:00.095Z,1.13
2022-11-17T15:40:27.992Z,1.20
2022-11-17T15:42:55.871Z,1.33
2022-11-17T15:45:23.776Z,1.73
2022-11-17T15:47:51.703Z,1.00
2022-11-17T15:50:19.577Z,0.90
2022-11-17T15:53:04.493Z,0.67
2022-11-17T15:55:35.098Z,1.37
2022-11-17T15:58:03.010Z,0.63
2022-11-17T16:00:33.045Z,2.10
2022-11-17T16:03:01.010Z,1.10
2022-11-17T16:05:28.870Z,1.20
2022-11-17T16:07:56.799Z,2.50
2022-11-17T16:10:24.700Z,1.43
2022-11-17T16:12:54.057Z,1.53
2022-11-17T16:15:21.920Z,2.10
2022-11-17T16:17:49.821Z,1.57
2022-11-17T16:20:18.448Z,2.23
2022-11-17T16:22:46.394Z,3.30
2022-11-17T16:25:14.488Z,5.20
2022-11-17T16:27:42.392Z,21.73
2022-11-17T16:30:13.219Z,9.20
2022-11-17T16:32:41.082Z,14.70
2022-11-17T16:35:09.364Z,10.37
2022-11-17T16:37:37.651Z,34.60
2022-11-17T16:40:06.369Z,30.87
2022-11-17T16:42:34.319Z,33.87
2022-11-17T16:45:02.210Z,34.43
2022-11-17T16:47:32.970Z,38.00
2022-11-17T16:50:00.938Z,14.47
2022-11-17T16:52:28.806Z,8.50
2022-11-17T16:55:01.778Z,4.30
2022-11-17T16:57:32.778Z,8.60
2022-11-17T17:00:00.692Z,2.87
2022-11-17T17:02:28.630Z,5.10
2022-11-17T17:04:57.915Z,5.67
2022-11-17T17:07:25.896Z,3.63
2022-11-17T17:09:53.851Z,3.30
2022-11-17T17:12:21.736Z,3.17
2022-11-17T17:14:49.623Z,3.63
2022-11-17T17:17:17.493Z,2.50
2022-11-17T17:19:45.545Z,5.63
2022-11-17T17:22:17.592Z,5.80
2022-11-17T17:24:45.476Z,6.23
2022-11-17T17:27:13.390Z,3.77
2022-11-17T17:29:41.270Z,2.63
2022-11-17T17:32:09.735Z,6.63
2022-11-17T17:34:37.672Z,3.30
2022-11-17T17:37:05.582Z,2.37
2022-11-17T17:39:35.036Z,2.80
2022-11-17T17:42:02.931Z,5.43
2022-11-17T17:44:30.866Z,6.23
2022-11-17T17:46:59.100Z,3.90
2022-11-17T17:49:27.049Z,2.20
2022-11-17T17:51:54.925Z,3.07
2022-11-17T17:54:24.027Z,3.03
2022-11-17T17:56:54.360Z,1.40
2022-11-17T17:59:22.532Z,1.60
2022-11-17T18:01:51.516Z,1.53
2022-11-17T18:04:19.526Z,1.33
2022-11-17T18:06:48.248Z,1.63
2022-11-17T18:09:19.396Z,1.20
2022-11-17T18:11:49.656Z,0.93
2022-11-17T18:14:24.111Z,1.20
2022-11-17T18:16:53.202Z,0.83
2022-11-17T18:19:21.389Z,1.93
2022-11-17T18:21:49.404Z,2.40
2022-11-17T18:24:17.307Z,0.90
2022-11-17T18:26:45.207Z,1.70
2022-11-17T18:29:15.973Z,1.33
2022-11-17T18:31:47.282Z,0.67
2022-11-17T18:34:17.043Z,0.90
2022-11-17T18:36:44.968Z,0.60
2022-11-17T18:39:12.880Z,0.80
2022-11-17T18:41:41.093Z,0.70
2022-11-17T18:44:11.863Z,0.70
2022-11-17T18:46:40.074Z,1.17
2022-11-17T18:49:09.527Z,1.30
2022-11-17T18:51:37.426Z,0.60
2022-11-17T18:54:05.640Z,0.60
2022-11-17T18:56:35.500Z,0.70
2022-11-17T18:59:06.199Z,0.67
2022-11-17T19:01:34.918Z,1.07
2022-11-17T19:04:02.826Z,0.80
2022-11-17T19:06:32.213Z,1.00
2022-11-17T19:09:00.740Z,1.73
2022-11-17T19:11:30.817Z,0.87
2022-11-17T19:14:02.053Z,0.70
2022-11-17T19:16:30.350Z,1.33
2022-11-17T19:18:59.174Z,0.30
2022-11-17T19:21:28.985Z,0.60
2022-11-17T19:23:59.929Z,0.50
2022-11-17T19:26:29.410Z,0.83
2022-11-17T19:28:58.157Z,0.70
2022-11-17T19:31:27.010Z,0.73
2022-11-17T19:33:56.515Z,0.80
2022-11-17T19:36:26.988Z,0.63
2022-11-17T19:38:56.859Z,0.50
2022-11-17T19:41:27.677Z,0.50
2022-11-17T19:43:56.831Z,0.40
2022-11-17T19:46:26.002Z,0.50
2022-11-17T19:48:54.230Z,0.40
2022-11-17T19:51:24.058Z,0.57
2022-11-17T19:53:52.978Z,0.30
2022-11-17T19:56:21.844Z,0.50
2022-11-17T19:58:51.937Z,0.57
2022-11-17T20:01:22.054Z,0.83
2022-11-17T20:03:50.843Z,0.47
2022-11-17T20:06:20.212Z,0.50
2022-11-17T20:08:48.625Z,0.40
2022-11-17T20:11:18.434Z,0.87
2022-11-17T20:13:46.892Z,0.60
2022-11-17T20:16:17.946Z,2.87
2022-11-17T20:18:49.566Z,1.93
2022-11-17T20:21:17.824Z,1.80
2022-11-17T20:23:46.097Z,1.10
2022-11-17T20:26:16.151Z,1.50
2022-11-17T20:28:44.525Z,2.90
2022-11-17T20:31:15.959Z,2.30
2022-11-17T20:33:44.842Z,2.50
2022-11-17T20:36:14.413Z,1.80
2022-11-17T20:38:42.431Z,2.20
2022-11-17T20:41:10.719Z,1.33
2022-11-17T20:43:38.711Z,1.53
2022-11-17T20:46:06.979Z,2.70
2022-11-17T20:48:36.723Z,4.67
2022-11-17T20:51:06.930Z,4.63
2022-11-17T20:53:36.247Z,5.77
2022-11-17T20:56:06.068Z,13.80
2022-11-17T20:58:34.701Z,7.17
2022-11-17T21:01:08.608Z,6.20
2022-11-17T21:03:38.239Z,4.10
2022-11-17T21:06:06.816Z,5.73
2022-11-17T21:08:37.349Z,3.80
2022-11-17T21:11:07.706Z,3.10
2022-11-17T21:13:37.436Z,3.80
2022-11-17T21:16:08.030Z,2.83
2022-11-17T21:18:38.587Z,2.00
2022-11-17T21:21:08.963Z,2.57
2022-11-17T21:23:37.512Z,2.63
2022-11-17T21:26:06.823Z,2.73
2022-11-17T21:28:34.853Z,1.60
2022-11-17T21:31:09.757Z,1.97
2022-11-17T21:33:39.558Z,3.47
2022-11-17T21:36:09.068Z,1.83
2022-11-17T21:38:37.284Z,1.30
2022-11-17T21:41:06.711Z,2.13
2022-11-17T21:43:37.330Z,1.40
2022-11-17T21:46:07.353Z,2.00
2022-11-17T21:48:36.503Z,1.00
2022-11-17T21:51:06.825Z,0.90
2022-11-17T21:53:35.143Z,1.00
2022-11-17T21:56:03.502Z,1.33
2022-11-17T21:58:31.980Z,2.00
2022-11-17T22:01:00.271Z,1.53
2022-11-17T22:03:28.289Z,1.77
2022-11-17T22:06:02.074Z,0.93
2022-11-17T22:08:31.721Z,1.17
2022-11-17T22:11:04.267Z,1.87
2022-11-17T22:13:32.211Z,2.27
2022-11-17T22:16:05.118Z,1.73
2022-11-17T22:18:33.053Z,1.70
2022-11-17T22:21:01.043Z,1.43
2022-11-17T22:23:29.326Z,1.30
2022-11-17T22:26:00.092Z,1.60
2022-11-17T22:28:28.587Z,1.20
2022-11-17T22:30:56.881Z,1.50
2022-11-17T22:33:25.203Z,1.93
2022-11-17T22:35:53.258Z,1.57
2022-11-17T22:38:21.112Z,1.70
2022-11-17T22:40:48.971Z,1.63
2022-11-17T22:43:18.196Z,1.60
2022-11-17T22:45:46.088Z,1.20
2022-11-17T22:48:13.981Z,1.70
2022-11-17T22:50:41.914Z,1.70
2022-11-17T22:53:09.825Z,1.40
2022-11-17T22:55:37.779Z,1.20
2022-11-17T22:58:05.834Z,1.17
2022-11-17T23:00:35.287Z,1.83
2022-11-17T23:03:03.315Z,3.40
2022-11-17T23:05:31.278Z,2.37
2022-11-17T23:07:59.172Z,1.43
2022-11-17T23:10:27.249Z,1.50
2022-11-17T23:12:55.790Z,3.93
2022-11-17T23:15:23.703Z,2.07
2022-11-17T23:17:52.963Z,2.00
2022-11-17T23:20:20.865Z,1.57
2022-11-17T23:22:48.750Z,1.37
2022-11-17T23:25:16.682Z,1.53
2022-11-17T23:27:44.541Z,1.70
2022-11-17T23:30:13.748Z,1.97
2022-11-17T23:32:41.656Z,2.33
2022-11-17T23:35:11.202Z,1.43
2022-11-17T23:37:39.047Z,2.03
2022-11-17T23:40:08.370Z,2.07
2022-11-17T23:42:41.654Z,1.33
2022-11-17T23:45:12.732Z,2.00
2022-11-17T23:47:40.869Z,2.13
2022-11-17T23:50:10.723Z,2.23
2022-11-17T23:52:38.576Z,3.40
2022-11-17T23:55:07.251Z,2.80
2022-11-17T23:57:35.189Z,2.27
